sensor_id;sensor_type;location;lat;lon;timestamp;temperature;humidity
12413;DHT22;13877;18.896;-99.222;2022-08-20T00:00:47;28.80;59.80
12413;DHT22;13877;18.896;-99.222;2022-08-20T00:03:19;28.30;60.40
12413;DHT22;13877;18.896;-99.222;2022-08-20T00:06:11;28.30;60.10
12413;DHT22;13877;18.896;-99.222;2022-08-20T00:08:40;28.60;60.90
12413;DHT22;13877;18.896;-99.222;2022-08-20T00:11:09;28.80;59.80
12413;DHT22;13877;18.896;-99.222;2022-08-20T00:13:42;28.90;58.90
12413;DHT22;13877;18.896;-99.222;2022-08-20T00:16:11;29.10;59.10
12413;DHT22;13877;18.896;-99.222;2022-08-20T00:18:38;29.10;58.70
12413;DHT22;13877;18.896;-99.222;2022-08-20T00:21:09;28.70;59.30
12413;DHT22;13877;18.896;-99.222;2022-08-20T00:23:39;28.00;60.00
12413;DHT22;13877;18.896;-99.222;2022-08-20T00:26:07;27.60;61.30
12413;DHT22;13877;18.896;-99.222;2022-08-20T00:28:36;27.50;61.80
12413;DHT22;13877;18.896;-99.222;2022-08-20T00:31:05;27.10;61.60
12413;DHT22;13877;18.896;-99.222;2022-08-20T00:33:33;26.90;61.90
12413;DHT22;13877;18.896;-99.222;2022-08-20T00:36:00;26.50;62.60
12413;DHT22;13877;18.896;-99.222;2022-08-20T00:38:33;25.70;62.70
12413;DHT22;13877;18.896;-99.222;2022-08-20T00:41:00;25.10;64.70
12413;DHT22;13877;18.896;-99.222;2022-08-20T00:46:12;24.50;65.40
12413;DHT22;13877;18.896;-99.222;2022-08-20T00:48:42;24.30;65.50
12413;DHT22;13877;18.896;-99.222;2022-08-20T00:51:28;24.20;65.10
12413;DHT22;13877;18.896;-99.222;2022-08-20T00:54:18;24.10;65.60
12413;DHT22;13877;18.896;-99.222;2022-08-20T00:56:51;23.90;65.60
12413;DHT22;13877;18.896;-99.222;2022-08-20T00:59:23;23.90;64.60
12413;DHT22;13877;18.896;-99.222;2022-08-20T01:01:52;23.90;63.70
12413;DHT22;13877;18.896;-99.222;2022-08-20T01:04:19;23.80;63.80
12413;DHT22;13877;18.896;-99.222;2022-08-20T01:07:05;23.70;64.40
12413;DHT22;13877;18.896;-99.222;2022-08-20T01:09:34;23.60;63.60
12413;DHT22;13877;18.896;-99.222;2022-08-20T01:12:01;23.60;64.00
12413;DHT22;13877;18.896;-99.222;2022-08-20T01:14:29;23.50;64.70
12413;DHT22;13877;18.896;-99.222;2022-08-20T01:17:14;23.40;65.80
12413;DHT22;13877;18.896;-99.222;2022-08-20T01:22:42;23.30;67.50
12413;DHT22;13877;18.896;-99.222;2022-08-20T01:25:55;23.20;67.80
12413;DHT22;13877;18.896;-99.222;2022-08-20T01:28:51;23.20;68.80
12413;DHT22;13877;18.896;-99.222;2022-08-20T01:31:23;23.20;68.70
12413;DHT22;13877;18.896;-99.222;2022-08-20T01:33:53;23.10;69.30
12413;DHT22;13877;18.896;-99.222;2022-08-20T01:36:24;23.00;69.90
12413;DHT22;13877;18.896;-99.222;2022-08-20T01:38:52;22.90;71.10
12413;DHT22;13877;18.896;-99.222;2022-08-20T01:44:05;22.60;71.00
12413;DHT22;13877;18.896;-99.222;2022-08-20T01:46:35;22.50;72.00
12413;DHT22;13877;18.896;-99.222;2022-08-20T01:49:10;22.40;73.40
12413;DHT22;13877;18.896;-99.222;2022-08-20T01:51:38;22.20;72.80
12413;DHT22;13877;18.896;-99.222;2022-08-20T01:54:05;22.20;73.80
12413;DHT22;13877;18.896;-99.222;2022-08-20T01:56:33;22.10;74.50
12413;DHT22;13877;18.896;-99.222;2022-08-20T01:59:03;22.00;74.20
12413;DHT22;13877;18.896;-99.222;2022-08-20T02:01:38;22.00;75.10
12413;DHT22;13877;18.896;-99.222;2022-08-20T02:04:09;22.10;75.40
12413;DHT22;13877;18.896;-99.222;2022-08-20T02:06:38;22.10;75.70
12413;DHT22;13877;18.896;-99.222;2022-08-20T02:09:06;22.30;75.90
12413;DHT22;13877;18.896;-99.222;2022-08-20T02:11:35;22.40;75.80
12413;DHT22;13877;18.896;-99.222;2022-08-20T02:14:05;22.50;76.80
12413;DHT22;13877;18.896;-99.222;2022-08-20T02:16:37;22.50;76.50
12413;DHT22;13877;18.896;-99.222;2022-08-20T02:19:11;22.60;76.50
12413;DHT22;13877;18.896;-99.222;2022-08-20T02:21:43;22.50;77.60
12413;DHT22;13877;18.896;-99.222;2022-08-20T02:24:12;22.60;77.00
12413;DHT22;13877;18.896;-99.222;2022-08-20T02:26:42;22.60;77.10
12413;DHT22;13877;18.896;-99.222;2022-08-20T02:29:11;22.70;77.20
12413;DHT22;13877;18.896;-99.222;2022-08-20T02:31:57;22.80;77.20
12413;DHT22;13877;18.896;-99.222;2022-08-20T02:34:24;22.80;77.10
12413;DHT22;13877;18.896;-99.222;2022-08-20T02:36:51;22.80;77.80
12413;DHT22;13877;18.896;-99.222;2022-08-20T02:39:18;22.70;79.70
12413;DHT22;13877;18.896;-99.222;2022-08-20T02:41:45;22.60;79.20
12413;DHT22;13877;18.896;-99.222;2022-08-20T02:44:11;22.60;79.70
12413;DHT22;13877;18.896;-99.222;2022-08-20T02:46:38;22.60;79.70
12413;DHT22;13877;18.896;-99.222;2022-08-20T02:49:07;22.60;79.90
12413;DHT22;13877;18.896;-99.222;2022-08-20T02:51:34;22.50;80.40
12413;DHT22;13877;18.896;-99.222;2022-08-20T02:54:01;22.50;80.10
12413;DHT22;13877;18.896;-99.222;2022-08-20T02:56:28;22.40;81.50
12413;DHT22;13877;18.896;-99.222;2022-08-20T02:58:55;22.20;82.80
12413;DHT22;13877;18.896;-99.222;2022-08-20T03:01:22;22.30;83.10
12413;DHT22;13877;18.896;-99.222;2022-08-20T03:03:49;22.30;82.80
12413;DHT22;13877;18.896;-99.222;2022-08-20T03:06:16;22.00;85.10
12413;DHT22;13877;18.896;-99.222;2022-08-20T03:08:44;21.80;86.90
12413;DHT22;13877;18.896;-99.222;2022-08-20T03:11:10;21.70;89.30
12413;DHT22;13877;18.896;-99.222;2022-08-20T03:13:38;21.80;90.90
12413;DHT22;13877;18.896;-99.222;2022-08-20T03:16:06;21.60;91.20
12413;DHT22;13877;18.896;-99.222;2022-08-20T03:18:45;21.60;91.80
12413;DHT22;13877;18.896;-99.222;2022-08-20T03:21:13;21.50;92.30
12413;DHT22;13877;18.896;-99.222;2022-08-20T03:23:40;21.40;92.80
12413;DHT22;13877;18.896;-99.222;2022-08-20T03:26:09;21.40;92.80
12413;DHT22;13877;18.896;-99.222;2022-08-20T03:28:37;21.30;93.30
12413;DHT22;13877;18.896;-99.222;2022-08-20T03:31:04;21.30;93.90
12413;DHT22;13877;18.896;-99.222;2022-08-20T03:33:31;21.30;94.40
12413;DHT22;13877;18.896;-99.222;2022-08-20T03:35:59;21.40;94.70
12413;DHT22;13877;18.896;-99.222;2022-08-20T03:38:26;21.40;95.10
12413;DHT22;13877;18.896;-99.222;2022-08-20T03:40:53;21.40;95.80
12413;DHT22;13877;18.896;-99.222;2022-08-20T03:43:20;21.30;96.20
12413;DHT22;13877;18.896;-99.222;2022-08-20T03:45:47;21.20;96.70
12413;DHT22;13877;18.896;-99.222;2022-08-20T03:48:18;21.30;97.00
12413;DHT22;13877;18.896;-99.222;2022-08-20T03:50:46;21.30;97.10
12413;DHT22;13877;18.896;-99.222;2022-08-20T03:53:14;21.30;97.30
12413;DHT22;13877;18.896;-99.222;2022-08-20T03:55:44;21.20;97.40
12413;DHT22;13877;18.896;-99.222;2022-08-20T03:58:13;21.20;97.50
12413;DHT22;13877;18.896;-99.222;2022-08-20T04:00:48;21.20;97.60
12413;DHT22;13877;18.896;-99.222;2022-08-20T04:03:17;21.30;97.90
12413;DHT22;13877;18.896;-99.222;2022-08-20T04:05:44;21.40;97.50
12413;DHT22;13877;18.896;-99.222;2022-08-20T04:08:19;21.40;97.70
12413;DHT22;13877;18.896;-99.222;2022-08-20T04:10:47;21.30;98.00
12413;DHT22;13877;18.896;-99.222;2022-08-20T04:13:16;21.20;98.10
12413;DHT22;13877;18.896;-99.222;2022-08-20T04:15:43;21.30;98.20
12413;DHT22;13877;18.896;-99.222;2022-08-20T04:18:11;21.40;98.30
12413;DHT22;13877;18.896;-99.222;2022-08-20T04:20:41;21.50;98.40
12413;DHT22;13877;18.896;-99.222;2022-08-20T04:23:09;21.50;98.20
12413;DHT22;13877;18.896;-99.222;2022-08-20T04:25:37;21.40;98.70
12413;DHT22;13877;18.896;-99.222;2022-08-20T04:28:13;21.40;99.10
12413;DHT22;13877;18.896;-99.222;2022-08-20T04:30:40;21.30;99.10
12413;DHT22;13877;18.896;-99.222;2022-08-20T04:33:08;21.00;99.80
12413;DHT22;13877;18.896;-99.222;2022-08-20T04:35:36;20.90;99.90
12413;DHT22;13877;18.896;-99.222;2022-08-20T04:38:07;20.70;99.90
12413;DHT22;13877;18.896;-99.222;2022-08-20T04:40:35;20.60;99.90
12413;DHT22;13877;18.896;-99.222;2022-08-20T04:43:30;20.50;99.90
12413;DHT22;13877;18.896;-99.222;2022-08-20T04:46:04;20.40;99.90
12413;DHT22;13877;18.896;-99.222;2022-08-20T04:48:32;20.40;99.90
12413;DHT22;13877;18.896;-99.222;2022-08-20T04:50:59;20.40;99.90
12413;DHT22;13877;18.896;-99.222;2022-08-20T04:53:28;20.30;99.90
12413;DHT22;13877;18.896;-99.222;2022-08-20T04:55:57;20.20;99.90
12413;DHT22;13877;18.896;-99.222;2022-08-20T04:58:31;20.20;99.90
12413;DHT22;13877;18.896;-99.222;2022-08-20T05:01:02;20.30;99.90
12413;DHT22;13877;18.896;-99.222;2022-08-20T05:03:30;20.60;99.90
12413;DHT22;13877;18.896;-99.222;2022-08-20T05:05:58;20.50;99.90
12413;DHT22;13877;18.896;-99.222;2022-08-20T05:08:26;20.60;99.90
12413;DHT22;13877;18.896;-99.222;2022-08-20T05:10:55;21.00;99.90
12413;DHT22;13877;18.896;-99.222;2022-08-20T05:13:24;21.10;99.90
12413;DHT22;13877;18.896;-99.222;2022-08-20T05:15:51;21.30;99.90
12413;DHT22;13877;18.896;-99.222;2022-08-20T05:18:21;21.40;99.90
12413;DHT22;13877;18.896;-99.222;2022-08-20T05:20:51;21.20;99.90
12413;DHT22;13877;18.896;-99.222;2022-08-20T05:23:19;21.00;99.90
12413;DHT22;13877;18.896;-99.222;2022-08-20T05:25:48;21.00;99.90
12413;DHT22;13877;18.896;-99.222;2022-08-20T05:28:22;20.90;99.90
12413;DHT22;13877;18.896;-99.222;2022-08-20T05:30:51;21.00;99.90
12413;DHT22;13877;18.896;-99.222;2022-08-20T05:33:20;21.10;99.90
12413;DHT22;13877;18.896;-99.222;2022-08-20T05:35:49;21.10;99.90
12413;DHT22;13877;18.896;-99.222;2022-08-20T05:38:21;21.20;99.90
12413;DHT22;13877;18.896;-99.222;2022-08-20T05:40:50;21.20;99.90
12413;DHT22;13877;18.896;-99.222;2022-08-20T05:43:18;21.30;99.90
12413;DHT22;13877;18.896;-99.222;2022-08-20T05:45:47;21.40;99.90
12413;DHT22;13877;18.896;-99.222;2022-08-20T05:48:20;21.50;99.90
12413;DHT22;13877;18.896;-99.222;2022-08-20T05:50:49;21.40;99.90
12413;DHT22;13877;18.896;-99.222;2022-08-20T05:53:18;21.40;99.90
12413;DHT22;13877;18.896;-99.222;2022-08-20T05:55:45;21.40;99.90
12413;DHT22;13877;18.896;-99.222;2022-08-20T05:58:23;21.30;99.90
12413;DHT22;13877;18.896;-99.222;2022-08-20T06:01:09;21.20;99.90
12413;DHT22;13877;18.896;-99.222;2022-08-20T06:03:36;21.20;99.90
12413;DHT22;13877;18.896;-99.222;2022-08-20T06:06:21;21.00;99.90
12413;DHT22;13877;18.896;-99.222;2022-08-20T06:08:48;20.90;99.90
12413;DHT22;13877;18.896;-99.222;2022-08-20T06:11:15;20.90;99.90
12413;DHT22;13877;18.896;-99.222;2022-08-20T06:13:41;20.90;99.90
12413;DHT22;13877;18.896;-99.222;2022-08-20T06:16:09;21.10;99.90
12413;DHT22;13877;18.896;-99.222;2022-08-20T06:18:35;21.10;99.90
12413;DHT22;13877;18.896;-99.222;2022-08-20T06:21:02;21.10;99.90
12413;DHT22;13877;18.896;-99.222;2022-08-20T06:23:29;21.10;99.90
12413;DHT22;13877;18.896;-99.222;2022-08-20T06:25:57;21.10;99.90
12413;DHT22;13877;18.896;-99.222;2022-08-20T06:28:24;21.00;99.90
12413;DHT22;13877;18.896;-99.222;2022-08-20T06:30:51;21.00;99.90
12413;DHT22;13877;18.896;-99.222;2022-08-20T06:33:18;21.00;99.90
12413;DHT22;13877;18.896;-99.222;2022-08-20T06:35:45;20.80;99.90
12413;DHT22;13877;18.896;-99.222;2022-08-20T06:38:13;20.80;99.90
12413;DHT22;13877;18.896;-99.222;2022-08-20T06:40:40;20.80;99.90
12413;DHT22;13877;18.896;-99.222;2022-08-20T06:43:07;20.90;99.90
12413;DHT22;13877;18.896;-99.222;2022-08-20T06:45:36;21.00;99.90
12413;DHT22;13877;18.896;-99.222;2022-08-20T06:48:11;20.90;99.90
12413;DHT22;13877;18.896;-99.222;2022-08-20T06:50:41;20.80;99.90
12413;DHT22;13877;18.896;-99.222;2022-08-20T06:53:10;20.60;99.90
12413;DHT22;13877;18.896;-99.222;2022-08-20T06:55:40;20.50;99.90
12413;DHT22;13877;18.896;-99.222;2022-08-20T06:58:09;20.50;99.90
12413;DHT22;13877;18.896;-99.222;2022-08-20T07:00:38;20.50;99.90
12413;DHT22;13877;18.896;-99.222;2022-08-20T07:03:07;20.50;99.90
12413;DHT22;13877;18.896;-99.222;2022-08-20T07:05:38;20.50;99.90
12413;DHT22;13877;18.896;-99.222;2022-08-20T07:08:14;20.60;99.90
12413;DHT22;13877;18.896;-99.222;2022-08-20T07:10:44;20.50;99.90
12413;DHT22;13877;18.896;-99.222;2022-08-20T07:13:12;19.50;99.90
12413;DHT22;13877;18.896;-99.222;2022-08-20T07:15:41;18.90;99.90
12413;DHT22;13877;18.896;-99.222;2022-08-20T07:18:08;18.50;99.90
12413;DHT22;13877;18.896;-99.222;2022-08-20T07:20:36;18.50;99.90
12413;DHT22;13877;18.896;-99.222;2022-08-20T07:23:06;18.40;99.90
12413;DHT22;13877;18.896;-99.222;2022-08-20T07:25:33;18.50;99.90
12413;DHT22;13877;18.896;-99.222;2022-08-20T07:28:03;18.50;99.90
12413;DHT22;13877;18.896;-99.222;2022-08-20T07:30:30;18.60;99.90
12413;DHT22;13877;18.896;-99.222;2022-08-20T07:33:16;18.50;99.90
12413;DHT22;13877;18.896;-99.222;2022-08-20T07:35:43;18.40;99.90
12413;DHT22;13877;18.896;-99.222;2022-08-20T07:38:17;18.20;99.90
12413;DHT22;13877;18.896;-99.222;2022-08-20T07:40:59;18.30;99.90
12413;DHT22;13877;18.896;-99.222;2022-08-20T07:43:27;18.30;99.90
12413;DHT22;13877;18.896;-99.222;2022-08-20T07:45:55;18.30;99.90
12413;DHT22;13877;18.896;-99.222;2022-08-20T07:48:24;18.40;99.90
12413;DHT22;13877;18.896;-99.222;2022-08-20T07:51:02;18.40;99.90
12413;DHT22;13877;18.896;-99.222;2022-08-20T07:53:36;18.30;99.90
12413;DHT22;13877;18.896;-99.222;2022-08-20T07:56:06;18.20;99.90
12413;DHT22;13877;18.896;-99.222;2022-08-20T07:58:35;18.10;99.90
12413;DHT22;13877;18.896;-99.222;2022-08-20T08:01:04;18.00;99.90
12413;DHT22;13877;18.896;-99.222;2022-08-20T08:03:32;18.00;99.90
12413;DHT22;13877;18.896;-99.222;2022-08-20T08:05:59;17.90;99.90
12413;DHT22;13877;18.896;-99.222;2022-08-20T08:08:28;17.90;99.90
12413;DHT22;13877;18.896;-99.222;2022-08-20T08:10:58;17.90;99.90
12413;DHT22;13877;18.896;-99.222;2022-08-20T08:13:33;18.00;99.90
12413;DHT22;13877;18.896;-99.222;2022-08-20T08:16:06;18.00;99.90
12413;DHT22;13877;18.896;-99.222;2022-08-20T08:18:38;18.00;99.90
12413;DHT22;13877;18.896;-99.222;2022-08-20T08:21:07;18.00;99.90
12413;DHT22;13877;18.896;-99.222;2022-08-20T08:23:34;18.10;99.90
12413;DHT22;13877;18.896;-99.222;2022-08-20T08:26:01;18.10;99.90
12413;DHT22;13877;18.896;-99.222;2022-08-20T08:28:28;18.10;99.90
12413;DHT22;13877;18.896;-99.222;2022-08-20T08:30:56;18.20;99.90
12413;DHT22;13877;18.896;-99.222;2022-08-20T08:33:28;18.20;99.90
12413;DHT22;13877;18.896;-99.222;2022-08-20T08:35:59;18.20;99.90
12413;DHT22;13877;18.896;-99.222;2022-08-20T08:38:30;18.20;99.90
12413;DHT22;13877;18.896;-99.222;2022-08-20T08:43:38;18.10;99.90
12413;DHT22;13877;18.896;-99.222;2022-08-20T08:46:09;18.10;99.90
12413;DHT22;13877;18.896;-99.222;2022-08-20T08:48:40;18.20;99.90
12413;DHT22;13877;18.896;-99.222;2022-08-20T08:51:15;18.20;99.90
12413;DHT22;13877;18.896;-99.222;2022-08-20T08:53:50;18.10;99.90
12413;DHT22;13877;18.896;-99.222;2022-08-20T08:56:24;18.10;99.90
12413;DHT22;13877;18.896;-99.222;2022-08-20T08:58:52;18.20;99.90
12413;DHT22;13877;18.896;-99.222;2022-08-20T09:01:43;18.10;99.90
12413;DHT22;13877;18.896;-99.222;2022-08-20T09:04:14;18.10;99.90
12413;DHT22;13877;18.896;-99.222;2022-08-20T09:06:42;18.00;99.90
12413;DHT22;13877;18.896;-99.222;2022-08-20T09:09:36;17.90;99.90
12413;DHT22;13877;18.896;-99.222;2022-08-20T09:12:13;17.80;99.90
12413;DHT22;13877;18.896;-99.222;2022-08-20T09:14:40;17.80;99.90
12413;DHT22;13877;18.896;-99.222;2022-08-20T09:17:07;17.70;99.90
12413;DHT22;13877;18.896;-99.222;2022-08-20T09:19:34;17.70;99.90
12413;DHT22;13877;18.896;-99.222;2022-08-20T09:22:13;17.70;99.90
12413;DHT22;13877;18.896;-99.222;2022-08-20T09:24:41;17.60;99.90
12413;DHT22;13877;18.896;-99.222;2022-08-20T09:27:09;17.60;99.90
12413;DHT22;13877;18.896;-99.222;2022-08-20T09:29:36;17.60;99.90
12413;DHT22;13877;18.896;-99.222;2022-08-20T09:34:40;17.60;99.90
12413;DHT22;13877;18.896;-99.222;2022-08-20T09:37:07;17.60;99.90
12413;DHT22;13877;18.896;-99.222;2022-08-20T09:39:34;17.70;99.90
12413;DHT22;13877;18.896;-99.222;2022-08-20T09:42:13;17.70;99.90
12413;DHT22;13877;18.896;-99.222;2022-08-20T09:44:40;17.80;99.90
12413;DHT22;13877;18.896;-99.222;2022-08-20T09:47:07;17.80;99.90
12413;DHT22;13877;18.896;-99.222;2022-08-20T09:49:34;17.90;99.90
12413;DHT22;13877;18.896;-99.222;2022-08-20T09:52:07;17.90;99.90
12413;DHT22;13877;18.896;-99.222;2022-08-20T09:54:35;17.90;99.90
12413;DHT22;13877;18.896;-99.222;2022-08-20T09:57:06;17.80;99.90
12413;DHT22;13877;18.896;-99.222;2022-08-20T09:59:34;17.80;99.90
12413;DHT22;13877;18.896;-99.222;2022-08-20T10:02:20;17.80;99.90
12413;DHT22;13877;18.896;-99.222;2022-08-20T10:05:06;17.90;99.90
12413;DHT22;13877;18.896;-99.222;2022-08-20T10:07:36;17.70;99.90
12413;DHT22;13877;18.896;-99.222;2022-08-20T10:10:04;17.60;99.90
12413;DHT22;13877;18.896;-99.222;2022-08-20T10:12:30;17.60;99.90
12413;DHT22;13877;18.896;-99.222;2022-08-20T10:14:57;17.60;99.90
12413;DHT22;13877;18.896;-99.222;2022-08-20T10:17:24;17.60;99.90
12413;DHT22;13877;18.896;-99.222;2022-08-20T10:19:51;17.50;99.90
12413;DHT22;13877;18.896;-99.222;2022-08-20T10:22:18;17.60;99.90
12413;DHT22;13877;18.896;-99.222;2022-08-20T10:24:45;17.70;99.90
12413;DHT22;13877;18.896;-99.222;2022-08-20T10:27:12;17.70;99.90
12413;DHT22;13877;18.896;-99.222;2022-08-20T10:29:39;17.70;99.90
12413;DHT22;13877;18.896;-99.222;2022-08-20T10:32:12;17.70;99.90
12413;DHT22;13877;18.896;-99.222;2022-08-20T10:34:41;17.70;99.90
12413;DHT22;13877;18.896;-99.222;2022-08-20T10:37:09;17.70;99.90
12413;DHT22;13877;18.896;-99.222;2022-08-20T10:39:36;17.70;99.90
12413;DHT22;13877;18.896;-99.222;2022-08-20T10:42:03;17.70;99.90
12413;DHT22;13877;18.896;-99.222;2022-08-20T10:44:30;17.70;99.90
12413;DHT22;13877;18.896;-99.222;2022-08-20T10:46:57;17.70;99.90
12413;DHT22;13877;18.896;-99.222;2022-08-20T10:49:24;17.70;99.90
12413;DHT22;13877;18.896;-99.222;2022-08-20T10:51:51;17.70;99.90
12413;DHT22;13877;18.896;-99.222;2022-08-20T10:54:18;17.70;99.90
12413;DHT22;13877;18.896;-99.222;2022-08-20T10:56:45;17.70;99.90
12413;DHT22;13877;18.896;-99.222;2022-08-20T10:59:37;17.70;99.90
12413;DHT22;13877;18.896;-99.222;2022-08-20T11:02:23;17.60;99.90
12413;DHT22;13877;18.896;-99.222;2022-08-20T11:04:51;17.60;99.90
12413;DHT22;13877;18.896;-99.222;2022-08-20T11:07:28;17.60;99.90
12413;DHT22;13877;18.896;-99.222;2022-08-20T11:09:57;17.40;99.90
12413;DHT22;13877;18.896;-99.222;2022-08-20T11:12:23;17.30;99.90
12413;DHT22;13877;18.896;-99.222;2022-08-20T11:14:52;17.30;99.90
12413;DHT22;13877;18.896;-99.222;2022-08-20T11:17:23;17.40;99.90
12413;DHT22;13877;18.896;-99.222;2022-08-20T11:19:51;17.40;99.90
12413;DHT22;13877;18.896;-99.222;2022-08-20T11:22:19;17.40;99.90
12413;DHT22;13877;18.896;-99.222;2022-08-20T11:24:46;17.40;99.90
12413;DHT22;13877;18.896;-99.222;2022-08-20T11:27:24;17.40;99.90
12413;DHT22;13877;18.896;-99.222;2022-08-20T11:29:51;17.40;99.90
12413;DHT22;13877;18.896;-99.222;2022-08-20T11:32:19;17.40;99.90
12413;DHT22;13877;18.896;-99.222;2022-08-20T11:34:46;17.50;99.90
12413;DHT22;13877;18.896;-99.222;2022-08-20T11:37:15;17.60;99.90
12413;DHT22;13877;18.896;-99.222;2022-08-20T11:39:42;17.70;99.90
12413;DHT22;13877;18.896;-99.222;2022-08-20T11:42:09;17.70;99.90
12413;DHT22;13877;18.896;-99.222;2022-08-20T11:44:36;17.60;99.90
12413;DHT22;13877;18.896;-99.222;2022-08-20T11:47:04;17.40;99.90
12413;DHT22;13877;18.896;-99.222;2022-08-20T11:49:34;17.50;99.90
12413;DHT22;13877;18.896;-99.222;2022-08-20T11:52:02;17.60;99.90
12413;DHT22;13877;18.896;-99.222;2022-08-20T11:54:29;17.60;99.90
12413;DHT22;13877;18.896;-99.222;2022-08-20T11:56:58;17.50;99.90
12413;DHT22;13877;18.896;-99.222;2022-08-20T11:59:26;17.60;99.90
12413;DHT22;13877;18.896;-99.222;2022-08-20T12:01:54;17.40;99.90
12413;DHT22;13877;18.896;-99.222;2022-08-20T12:04:21;17.40;99.90
12413;DHT22;13877;18.896;-99.222;2022-08-20T12:06:50;17.40;99.90
12413;DHT22;13877;18.896;-99.222;2022-08-20T12:09:17;17.40;99.90
12413;DHT22;13877;18.896;-99.222;2022-08-20T12:11:44;17.30;99.90
12413;DHT22;13877;18.896;-99.222;2022-08-20T12:14:11;17.20;99.90
12413;DHT22;13877;18.896;-99.222;2022-08-20T12:16:38;17.20;99.90
12413;DHT22;13877;18.896;-99.222;2022-08-20T12:19:05;17.10;99.90
12413;DHT22;13877;18.896;-99.222;2022-08-20T12:21:32;17.20;99.90
12413;DHT22;13877;18.896;-99.222;2022-08-20T12:23:59;17.20;99.90
12413;DHT22;13877;18.896;-99.222;2022-08-20T12:26:25;17.20;99.90
12413;DHT22;13877;18.896;-99.222;2022-08-20T12:28:52;17.10;99.90
12413;DHT22;13877;18.896;-99.222;2022-08-20T12:31:21;17.10;99.90
12413;DHT22;13877;18.896;-99.222;2022-08-20T12:33:48;17.10;99.90
12413;DHT22;13877;18.896;-99.222;2022-08-20T12:36:15;17.00;99.90
12413;DHT22;13877;18.896;-99.222;2022-08-20T12:38:41;17.00;99.90
12413;DHT22;13877;18.896;-99.222;2022-08-20T12:41:08;17.10;99.90
12413;DHT22;13877;18.896;-99.222;2022-08-20T12:43:35;17.20;99.90
12413;DHT22;13877;18.896;-99.222;2022-08-20T12:46:02;17.30;99.90
12413;DHT22;13877;18.896;-99.222;2022-08-20T12:48:29;17.40;99.90
12413;DHT22;13877;18.896;-99.222;2022-08-20T12:50:56;17.50;99.90
12413;DHT22;13877;18.896;-99.222;2022-08-20T12:53:23;17.70;99.90
12413;DHT22;13877;18.896;-99.222;2022-08-20T12:55:50;17.80;99.90
12413;DHT22;13877;18.896;-99.222;2022-08-20T12:58:17;17.90;99.90
12413;DHT22;13877;18.896;-99.222;2022-08-20T13:00:45;17.90;99.90
12413;DHT22;13877;18.896;-99.222;2022-08-20T13:03:13;18.00;99.90
12413;DHT22;13877;18.896;-99.222;2022-08-20T13:05:40;18.00;99.90
12413;DHT22;13877;18.896;-99.222;2022-08-20T13:08:10;18.10;99.90
12413;DHT22;13877;18.896;-99.222;2022-08-20T13:10:40;18.10;99.90
12413;DHT22;13877;18.896;-99.222;2022-08-20T13:13:12;18.10;99.90
12413;DHT22;13877;18.896;-99.222;2022-08-20T13:15:40;18.20;99.90
12413;DHT22;13877;18.896;-99.222;2022-08-20T13:18:07;18.30;99.90
12413;DHT22;13877;18.896;-99.222;2022-08-20T13:20:35;18.30;99.90
12413;DHT22;13877;18.896;-99.222;2022-08-20T13:23:06;18.40;99.90
12413;DHT22;13877;18.896;-99.222;2022-08-20T13:25:33;18.60;99.90
12413;DHT22;13877;18.896;-99.222;2022-08-20T13:28:04;18.70;99.90
12413;DHT22;13877;18.896;-99.222;2022-08-20T13:30:33;18.80;99.90
12413;DHT22;13877;18.896;-99.222;2022-08-20T13:33:08;18.90;99.90
12413;DHT22;13877;18.896;-99.222;2022-08-20T13:35:34;19.00;99.90
12413;DHT22;13877;18.896;-99.222;2022-08-20T13:38:01;19.00;99.90
12413;DHT22;13877;18.896;-99.222;2022-08-20T13:40:28;19.20;99.90
12413;DHT22;13877;18.896;-99.222;2022-08-20T13:42:55;19.20;99.90
12413;DHT22;13877;18.896;-99.222;2022-08-20T13:45:22;19.40;99.90
12413;DHT22;13877;18.896;-99.222;2022-08-20T13:47:52;19.40;99.90
12413;DHT22;13877;18.896;-99.222;2022-08-20T13:50:21;19.50;99.90
12413;DHT22;13877;18.896;-99.222;2022-08-20T13:52:49;19.60;99.90
12413;DHT22;13877;18.896;-99.222;2022-08-20T13:55:18;19.60;99.90
12413;DHT22;13877;18.896;-99.222;2022-08-20T13:57:46;19.70;99.90
12413;DHT22;13877;18.896;-99.222;2022-08-20T14:00:17;19.80;99.90
12413;DHT22;13877;18.896;-99.222;2022-08-20T14:02:44;19.90;99.90
12413;DHT22;13877;18.896;-99.222;2022-08-20T14:05:13;20.00;99.90
12413;DHT22;13877;18.896;-99.222;2022-08-20T14:07:42;20.00;99.90
12413;DHT22;13877;18.896;-99.222;2022-08-20T14:10:12;20.10;99.90
12413;DHT22;13877;18.896;-99.222;2022-08-20T14:12:40;20.20;99.90
12413;DHT22;13877;18.896;-99.222;2022-08-20T14:15:07;20.30;99.90
12413;DHT22;13877;18.896;-99.222;2022-08-20T14:17:40;20.50;99.90
12413;DHT22;13877;18.896;-99.222;2022-08-20T14:20:13;20.50;99.90
12413;DHT22;13877;18.896;-99.222;2022-08-20T14:22:41;20.40;99.90
12413;DHT22;13877;18.896;-99.222;2022-08-20T14:25:10;20.60;99.90
12413;DHT22;13877;18.896;-99.222;2022-08-20T14:27:37;20.60;99.90
12413;DHT22;13877;18.896;-99.222;2022-08-20T14:30:08;20.60;99.90
12413;DHT22;13877;18.896;-99.222;2022-08-20T14:32:35;20.70;99.90
12413;DHT22;13877;18.896;-99.222;2022-08-20T14:35:03;20.60;99.90
12413;DHT22;13877;18.896;-99.222;2022-08-20T14:37:36;20.70;99.90
12413;DHT22;13877;18.896;-99.222;2022-08-20T14:40:06;20.70;99.90
12413;DHT22;13877;18.896;-99.222;2022-08-20T14:42:36;21.00;99.90
12413;DHT22;13877;18.896;-99.222;2022-08-20T14:45:05;21.30;99.90
12413;DHT22;13877;18.896;-99.222;2022-08-20T14:47:48;21.40;99.90
12413;DHT22;13877;18.896;-99.222;2022-08-20T14:50:18;21.60;99.90
12413;DHT22;13877;18.896;-99.222;2022-08-20T14:52:46;21.80;99.90
12413;DHT22;13877;18.896;-99.222;2022-08-20T14:55:16;21.90;99.90
12413;DHT22;13877;18.896;-99.222;2022-08-20T14:57:45;22.00;99.90
12413;DHT22;13877;18.896;-99.222;2022-08-20T15:00:17;22.00;99.90
12413;DHT22;13877;18.896;-99.222;2022-08-20T15:02:45;22.10;99.90
12413;DHT22;13877;18.896;-99.222;2022-08-20T15:05:13;22.00;99.90
12413;DHT22;13877;18.896;-99.222;2022-08-20T15:07:58;22.00;99.90
12413;DHT22;13877;18.896;-99.222;2022-08-20T15:10:28;21.90;99.90
12413;DHT22;13877;18.896;-99.222;2022-08-20T15:12:56;21.80;99.90
12413;DHT22;13877;18.896;-99.222;2022-08-20T15:15:24;22.00;99.90
12413;DHT22;13877;18.896;-99.222;2022-08-20T15:17:56;22.40;99.90
12413;DHT22;13877;18.896;-99.222;2022-08-20T15:20:26;22.70;99.90
12413;DHT22;13877;18.896;-99.222;2022-08-20T15:22:54;22.90;99.90
12413;DHT22;13877;18.896;-99.222;2022-08-20T15:25:23;23.20;99.90
12413;DHT22;13877;18.896;-99.222;2022-08-20T15:27:54;23.60;99.90
12413;DHT22;13877;18.896;-99.222;2022-08-20T15:30:22;24.10;99.90
12413;DHT22;13877;18.896;-99.222;2022-08-20T15:33:09;24.60;99.90